sensor_id;sensor_type;location;lat;lon;timestamp;temperature;humidity
7894;DHT22;51343;51.396;6.656;2022-08-05T00:00:39;18.70;99.90
7894;DHT22;51343;51.396;6.656;2022-08-05T00:03:07;18.70;99.90
7894;DHT22;51343;51.396;6.656;2022-08-05T00:05:34;18.60;99.90
7894;DHT22;51343;51.396;6.656;2022-08-05T00:08:01;18.60;99.90
7894;DHT22;51343;51.396;6.656;2022-08-05T00:10:27;18.60;99.90
7894;DHT22;51343;51.396;6.656;2022-08-05T00:12:54;18.70;99.90
7894;DHT22;51343;51.396;6.656;2022-08-05T00:15:21;18.60;99.90
7894;DHT22;51343;51.396;6.656;2022-08-05T00:17:48;18.70;99.90
7894;DHT22;51343;51.396;6.656;2022-08-05T00:20:16;18.60;99.90
7894;DHT22;51343;51.396;6.656;2022-08-05T00:22:43;18.60;99.90
7894;DHT22;51343;51.396;6.656;2022-08-05T00:25:09;18.50;99.90
7894;DHT22;51343;51.396;6.656;2022-08-05T00:27:36;18.60;99.90
7894;DHT22;51343;51.396;6.656;2022-08-05T00:30:03;18.50;99.90
7894;DHT22;51343;51.396;6.656;2022-08-05T00:32:30;18.50;99.90
7894;DHT22;51343;51.396;6.656;2022-08-05T00:34:57;18.50;99.90
7894;DHT22;51343;51.396;6.656;2022-08-05T00:37:26;18.50;99.90
7894;DHT22;51343;51.396;6.656;2022-08-05T00:39:52;18.40;99.90
7894;DHT22;51343;51.396;6.656;2022-08-05T00:42:28;18.40;99.90
7894;DHT22;51343;51.396;6.656;2022-08-05T00:44:54;18.40;99.90
7894;DHT22;51343;51.396;6.656;2022-08-05T00:47:21;18.30;99.90
7894;DHT22;51343;51.396;6.656;2022-08-05T00:49:47;18.30;99.90
7894;DHT22;51343;51.396;6.656;2022-08-05T00:52:14;18.20;99.90
7894;DHT22;51343;51.396;6.656;2022-08-05T00:54:42;18.30;99.90
7894;DHT22;51343;51.396;6.656;2022-08-05T00:57:09;18.30;99.90
7894;DHT22;51343;51.396;6.656;2022-08-05T00:59:36;18.30;99.90
7894;DHT22;51343;51.396;6.656;2022-08-05T01:02:02;18.30;99.90
7894;DHT22;51343;51.396;6.656;2022-08-05T01:04:29;18.10;99.90
7894;DHT22;51343;51.396;6.656;2022-08-05T01:06:56;18.10;99.90
7894;DHT22;51343;51.396;6.656;2022-08-05T01:09:22;18.10;99.90
7894;DHT22;51343;51.396;6.656;2022-08-05T01:11:51;18.10;99.90
7894;DHT22;51343;51.396;6.656;2022-08-05T01:14:19;18.10;99.90
7894;DHT22;51343;51.396;6.656;2022-08-05T01:16:50;18.10;99.90
7894;DHT22;51343;51.396;6.656;2022-08-05T01:19:25;18.10;99.90
7894;DHT22;51343;51.396;6.656;2022-08-05T01:22:02;18.10;99.90
7894;DHT22;51343;51.396;6.656;2022-08-05T01:24:36;18.10;99.90
7894;DHT22;51343;51.396;6.656;2022-08-05T01:27:11;18.10;99.90
7894;DHT22;51343;51.396;6.656;2022-08-05T01:29:40;18.10;99.90
7894;DHT22;51343;51.396;6.656;2022-08-05T01:32:11;18.10;99.90
7894;DHT22;51343;51.396;6.656;2022-08-05T01:34:44;18.10;99.90
7894;DHT22;51343;51.396;6.656;2022-08-05T01:37:13;18.10;99.90
7894;DHT22;51343;51.396;6.656;2022-08-05T01:39:41;18.20;99.90
7894;DHT22;51343;51.396;6.656;2022-08-05T01:42:09;18.20;99.90
7894;DHT22;51343;51.396;6.656;2022-08-05T01:44:37;18.20;99.90
7894;DHT22;51343;51.396;6.656;2022-08-05T01:47:06;18.20;99.90
7894;DHT22;51343;51.396;6.656;2022-08-05T01:49:32;18.20;99.90
7894;DHT22;51343;51.396;6.656;2022-08-05T01:52:00;18.30;99.90
7894;DHT22;51343;51.396;6.656;2022-08-05T01:54:34;18.30;99.90
7894;DHT22;51343;51.396;6.656;2022-08-05T01:57:01;18.20;99.90
7894;DHT22;51343;51.396;6.656;2022-08-05T01:59:28;18.20;99.90
7894;DHT22;51343;51.396;6.656;2022-08-05T02:01:56;18.30;99.90
7894;DHT22;51343;51.396;6.656;2022-08-05T02:04:25;18.20;99.90
7894;DHT22;51343;51.396;6.656;2022-08-05T02:06:53;18.30;99.90
7894;DHT22;51343;51.396;6.656;2022-08-05T02:09:21;18.20;99.90
7894;DHT22;51343;51.396;6.656;2022-08-05T02:11:48;18.30;99.90
7894;DHT22;51343;51.396;6.656;2022-08-05T02:14:18;18.20;99.90
7894;DHT22;51343;51.396;6.656;2022-08-05T02:16:46;18.30;99.90
7894;DHT22;51343;51.396;6.656;2022-08-05T02:19:16;18.30;99.90
7894;DHT22;51343;51.396;6.656;2022-08-05T02:21:47;18.30;99.90
7894;DHT22;51343;51.396;6.656;2022-08-05T02:24:15;18.20;99.90
7894;DHT22;51343;51.396;6.656;2022-08-05T02:26:45;18.20;99.90
7894;DHT22;51343;51.396;6.656;2022-08-05T02:29:12;18.20;99.90
7894;DHT22;51343;51.396;6.656;2022-08-05T02:31:41;18.20;99.90
7894;DHT22;51343;51.396;6.656;2022-08-05T02:34:09;18.10;99.90
7894;DHT22;51343;51.396;6.656;2022-08-05T02:36:38;18.10;99.90
7894;DHT22;51343;51.396;6.656;2022-08-05T02:39:06;18.10;99.90
7894;DHT22;51343;51.396;6.656;2022-08-05T02:41:34;18.10;99.90
7894;DHT22;51343;51.396;6.656;2022-08-05T02:44:02;18.00;99.90
7894;DHT22;51343;51.396;6.656;2022-08-05T02:46:32;18.00;99.90
7894;DHT22;51343;51.396;6.656;2022-08-05T02:48:59;18.00;99.90
7894;DHT22;51343;51.396;6.656;2022-08-05T02:51:25;18.00;99.90
7894;DHT22;51343;51.396;6.656;2022-08-05T02:53:53;18.00;99.90
7894;DHT22;51343;51.396;6.656;2022-08-05T02:56:21;17.90;99.90
7894;DHT22;51343;51.396;6.656;2022-08-05T02:58:48;17.90;99.90
7894;DHT22;51343;51.396;6.656;2022-08-05T03:01:16;17.90;99.90
7894;DHT22;51343;51.396;6.656;2022-08-05T03:03:45;17.80;99.90
7894;DHT22;51343;51.396;6.656;2022-08-05T03:06:12;17.70;99.90
7894;DHT22;51343;51.396;6.656;2022-08-05T03:08:40;17.80;99.90
7894;DHT22;51343;51.396;6.656;2022-08-05T03:11:17;17.80;99.90
7894;DHT22;51343;51.396;6.656;2022-08-05T03:13:45;17.70;99.90
7894;DHT22;51343;51.396;6.656;2022-08-05T03:16:12;17.70;99.90
7894;DHT22;51343;51.396;6.656;2022-08-05T03:18:39;17.70;99.90
7894;DHT22;51343;51.396;6.656;2022-08-05T03:21:05;17.70;99.90
7894;DHT22;51343;51.396;6.656;2022-08-05T03:23:32;17.70;99.90
7894;DHT22;51343;51.396;6.656;2022-08-05T03:25:59;17.70;99.90
7894;DHT22;51343;51.396;6.656;2022-08-05T03:28:26;17.70;99.90
7894;DHT22;51343;51.396;6.656;2022-08-05T03:30:54;17.70;99.90
7894;DHT22;51343;51.396;6.656;2022-08-05T03:33:21;17.70;99.90
7894;DHT22;51343;51.396;6.656;2022-08-05T03:35:48;17.80;99.90
7894;DHT22;51343;51.396;6.656;2022-08-05T03:38:16;17.70;99.90
7894;DHT22;51343;51.396;6.656;2022-08-05T03:40:43;17.70;99.90
7894;DHT22;51343;51.396;6.656;2022-08-05T03:43:10;17.60;99.90
7894;DHT22;51343;51.396;6.656;2022-08-05T03:45:37;17.60;99.90
7894;DHT22;51343;51.396;6.656;2022-08-05T03:48:06;17.60;99.90
7894;DHT22;51343;51.396;6.656;2022-08-05T03:50:34;17.60;99.90
7894;DHT22;51343;51.396;6.656;2022-08-05T03:53:06;17.60;99.90
7894;DHT22;51343;51.396;6.656;2022-08-05T03:55:36;17.60;99.90
7894;DHT22;51343;51.396;6.656;2022-08-05T03:58:05;17.60;99.90
7894;DHT22;51343;51.396;6.656;2022-08-05T04:00:35;17.60;99.90
7894;DHT22;51343;51.396;6.656;2022-08-05T04:03:02;17.60;99.90
7894;DHT22;51343;51.396;6.656;2022-08-05T04:05:33;17.60;99.90
7894;DHT22;51343;51.396;6.656;2022-08-05T04:08:01;17.60;99.90
7894;DHT22;51343;51.396;6.656;2022-08-05T04:10:28;17.60;99.90
7894;DHT22;51343;51.396;6.656;2022-08-05T04:12:55;17.70;99.90
7894;DHT22;51343;51.396;6.656;2022-08-05T04:15:21;17.60;99.90
7894;DHT22;51343;51.396;6.656;2022-08-05T04:17:48;17.60;99.90
7894;DHT22;51343;51.396;6.656;2022-08-05T04:20:18;17.60;99.90
7894;DHT22;51343;51.396;6.656;2022-08-05T04:22:47;17.60;99.90
7894;DHT22;51343;51.396;6.656;2022-08-05T04:25:14;17.60;99.90
7894;DHT22;51343;51.396;6.656;2022-08-05T04:27:41;17.60;99.90
7894;DHT22;51343;51.396;6.656;2022-08-05T04:30:08;17.50;99.90
7894;DHT22;51343;51.396;6.656;2022-08-05T04:32:35;17.60;99.90
7894;DHT22;51343;51.396;6.656;2022-08-05T04:35:02;17.60;99.90
7894;DHT22;51343;51.396;6.656;2022-08-05T04:37:28;17.60;99.90
7894;DHT22;51343;51.396;6.656;2022-08-05T04:39:58;17.60;99.90
7894;DHT22;51343;51.396;6.656;2022-08-05T04:42:25;17.60;99.90
7894;DHT22;51343;51.396;6.656;2022-08-05T04:44:51;17.60;99.90
7894;DHT22;51343;51.396;6.656;2022-08-05T04:47:18;17.70;99.90
7894;DHT22;51343;51.396;6.656;2022-08-05T04:49:45;17.70;99.90
7894;DHT22;51343;51.396;6.656;2022-08-05T04:52:11;17.60;99.90
7894;DHT22;51343;51.396;6.656;2022-08-05T04:54:38;17.60;99.90
7894;DHT22;51343;51.396;6.656;2022-08-05T04:57:06;17.60;99.90
7894;DHT22;51343;51.396;6.656;2022-08-05T04:59:32;17.60;99.90
7894;DHT22;51343;51.396;6.656;2022-08-05T05:01:59;17.60;99.90
7894;DHT22;51343;51.396;6.656;2022-08-05T05:04:26;17.60;99.90
7894;DHT22;51343;51.396;6.656;2022-08-05T05:06:52;17.60;99.90
7894;DHT22;51343;51.396;6.656;2022-08-05T05:09:19;17.60;99.90
7894;DHT22;51343;51.396;6.656;2022-08-05T05:11:45;17.60;99.90
7894;DHT22;51343;51.396;6.656;2022-08-05T05:14:14;17.60;99.90
7894;DHT22;51343;51.396;6.656;2022-08-05T05:16:40;17.60;99.90
7894;DHT22;51343;51.396;6.656;2022-08-05T05:19:07;17.60;99.90
7894;DHT22;51343;51.396;6.656;2022-08-05T05:21:34;17.50;99.90
7894;DHT22;51343;51.396;6.656;2022-08-05T05:24:00;17.50;99.90
7894;DHT22;51343;51.396;6.656;2022-08-05T05:26:27;17.50;99.90
7894;DHT22;51343;51.396;6.656;2022-08-05T05:28:54;17.40;99.90
7894;DHT22;51343;51.396;6.656;2022-08-05T05:31:22;17.50;99.90
7894;DHT22;51343;51.396;6.656;2022-08-05T05:33:48;17.40;99.90
7894;DHT22;51343;51.396;6.656;2022-08-05T05:36:15;17.40;99.90
7894;DHT22;51343;51.396;6.656;2022-08-05T05:38:42;17.40;99.90
7894;DHT22;51343;51.396;6.656;2022-08-05T05:41:09;17.40;99.90
7894;DHT22;51343;51.396;6.656;2022-08-05T05:43:35;17.30;99.90
7894;DHT22;51343;51.396;6.656;2022-08-05T05:46:02;17.30;99.90
7894;DHT22;51343;51.396;6.656;2022-08-05T05:48:30;17.10;99.90
7894;DHT22;51343;51.396;6.656;2022-08-05T05:50:57;17.10;99.90
7894;DHT22;51343;51.396;6.656;2022-08-05T05:53:24;17.10;99.90
7894;DHT22;51343;51.396;6.656;2022-08-05T05:55:50;17.10;99.90
7894;DHT22;51343;51.396;6.656;2022-08-05T05:58:17;17.10;99.90
7894;DHT22;51343;51.396;6.656;2022-08-05T06:00:44;17.10;99.90
7894;DHT22;51343;51.396;6.656;2022-08-05T06:03:11;17.10;99.90
7894;DHT22;51343;51.396;6.656;2022-08-05T06:05:39;17.10;99.90
7894;DHT22;51343;51.396;6.656;2022-08-05T06:08:06;17.10;99.90
7894;DHT22;51343;51.396;6.656;2022-08-05T06:10:34;17.00;99.90
7894;DHT22;51343;51.396;6.656;2022-08-05T06:13:01;17.00;99.90
7894;DHT22;51343;51.396;6.656;2022-08-05T06:15:29;16.90;99.90
7894;DHT22;51343;51.396;6.656;2022-08-05T06:17:56;16.80;99.90
7894;DHT22;51343;51.396;6.656;2022-08-05T06:20:22;16.70;99.90
7894;DHT22;51343;51.396;6.656;2022-08-05T06:22:50;16.70;99.90
7894;DHT22;51343;51.396;6.656;2022-08-05T06:25:17;16.70;99.90
7894;DHT22;51343;51.396;6.656;2022-08-05T06:27:43;16.60;99.90
7894;DHT22;51343;51.396;6.656;2022-08-05T06:30:10;16.70;99.90
7894;DHT22;51343;51.396;6.656;2022-08-05T06:32:40;16.60;99.90
7894;DHT22;51343;51.396;6.656;2022-08-05T06:35:07;16.60;99.90
7894;DHT22;51343;51.396;6.656;2022-08-05T06:37:33;16.60;99.90
7894;DHT22;51343;51.396;6.656;2022-08-05T06:40:02;16.60;99.90
7894;DHT22;51343;51.396;6.656;2022-08-05T06:42:29;16.70;99.90
7894;DHT22;51343;51.396;6.656;2022-08-05T06:44:56;16.60;99.90
7894;DHT22;51343;51.396;6.656;2022-08-05T06:47:22;16.70;99.90
7894;DHT22;51343;51.396;6.656;2022-08-05T06:49:49;16.60;99.90
7894;DHT22;51343;51.396;6.656;2022-08-05T06:52:15;16.70;99.90
7894;DHT22;51343;51.396;6.656;2022-08-05T06:54:44;16.60;99.90
7894;DHT22;51343;51.396;6.656;2022-08-05T06:57:13;16.60;99.90
7894;DHT22;51343;51.396;6.656;2022-08-05T06:59:42;16.70;99.90
7894;DHT22;51343;51.396;6.656;2022-08-05T07:02:09;16.60;99.90
7894;DHT22;51343;51.396;6.656;2022-08-05T07:04:36;16.70;99.90
7894;DHT22;51343;51.396;6.656;2022-08-05T07:07:03;16.60;99.90
7894;DHT22;51343;51.396;6.656;2022-08-05T07:09:29;16.60;99.90
7894;DHT22;51343;51.396;6.656;2022-08-05T07:11:56;16.60;99.90
7894;DHT22;51343;51.396;6.656;2022-08-05T07:14:24;16.60;99.90
7894;DHT22;51343;51.396;6.656;2022-08-05T07:17:09;16.60;99.90
7894;DHT22;51343;51.396;6.656;2022-08-05T07:19:36;16.60;99.90
7894;DHT22;51343;51.396;6.656;2022-08-05T07:22:02;16.50;99.90
7894;DHT22;51343;51.396;6.656;2022-08-05T07:24:29;16.40;99.90
7894;DHT22;51343;51.396;6.656;2022-08-05T07:26:56;16.40;99.90
7894;DHT22;51343;51.396;6.656;2022-08-05T07:29:24;16.40;99.90
7894;DHT22;51343;51.396;6.656;2022-08-05T07:31:51;16.40;99.90
7894;DHT22;51343;51.396;6.656;2022-08-05T07:34:18;16.30;99.90
7894;DHT22;51343;51.396;6.656;2022-08-05T07:36:55;16.40;99.90
7894;DHT22;51343;51.396;6.656;2022-08-05T07:39:22;16.40;99.90
7894;DHT22;51343;51.396;6.656;2022-08-05T07:41:49;16.40;99.90
7894;DHT22;51343;51.396;6.656;2022-08-05T07:44:15;16.30;99.90
7894;DHT22;51343;51.396;6.656;2022-08-05T07:46:43;16.30;99.90
7894;DHT22;51343;51.396;6.656;2022-08-05T07:49:10;16.30;99.90
7894;DHT22;51343;51.396;6.656;2022-08-05T07:51:38;16.30;99.90
7894;DHT22;51343;51.396;6.656;2022-08-05T07:54:04;16.30;99.90
7894;DHT22;51343;51.396;6.656;2022-08-05T07:56:31;16.30;99.90
7894;DHT22;51343;51.396;6.656;2022-08-05T07:58:58;16.30;99.90
7894;DHT22;51343;51.396;6.656;2022-08-05T08:01:25;16.40;99.90
7894;DHT22;51343;51.396;6.656;2022-08-05T08:03:53;16.40;99.90
7894;DHT22;51343;51.396;6.656;2022-08-05T08:06:20;16.40;99.90
7894;DHT22;51343;51.396;6.656;2022-08-05T08:08:47;16.40;99.90
7894;DHT22;51343;51.396;6.656;2022-08-05T08:11:14;16.40;99.90
7894;DHT22;51343;51.396;6.656;2022-08-05T08:13:41;16.40;99.90
7894;DHT22;51343;51.396;6.656;2022-08-05T08:16:07;16.30;99.90
7894;DHT22;51343;51.396;6.656;2022-08-05T08:18:34;16.40;99.90
7894;DHT22;51343;51.396;6.656;2022-08-05T08:21:02;16.40;99.90
7894;DHT22;51343;51.396;6.656;2022-08-05T08:23:30;16.40;99.90
7894;DHT22;51343;51.396;6.656;2022-08-05T08:25:57;16.50;99.90
7894;DHT22;51343;51.396;6.656;2022-08-05T08:28:23;16.50;99.90
7894;DHT22;51343;51.396;6.656;2022-08-05T08:30:50;16.50;99.90
7894;DHT22;51343;51.396;6.656;2022-08-05T08:33:17;16.60;99.90
7894;DHT22;51343;51.396;6.656;2022-08-05T08:35:43;16.60;99.90
7894;DHT22;51343;51.396;6.656;2022-08-05T08:38:11;16.70;99.90
7894;DHT22;51343;51.396;6.656;2022-08-05T08:40:40;16.70;99.90
7894;DHT22;51343;51.396;6.656;2022-08-05T08:43:08;16.70;99.90
7894;DHT22;51343;51.396;6.656;2022-08-05T08:45:36;16.80;99.90
7894;DHT22;51343;51.396;6.656;2022-08-05T08:48:03;16.80;99.90
7894;DHT22;51343;51.396;6.656;2022-08-05T08:50:31;16.80;99.90
7894;DHT22;51343;51.396;6.656;2022-08-05T08:53:00;16.80;99.90
7894;DHT22;51343;51.396;6.656;2022-08-05T08:55:29;16.80;99.90
7894;DHT22;51343;51.396;6.656;2022-08-05T08:57:57;16.80;99.90
7894;DHT22;51343;51.396;6.656;2022-08-05T09:00:24;16.90;99.90
7894;DHT22;51343;51.396;6.656;2022-08-05T09:02:51;16.90;99.90
7894;DHT22;51343;51.396;6.656;2022-08-05T09:05:18;16.90;99.90
7894;DHT22;51343;51.396;6.656;2022-08-05T09:07:45;17.10;99.90
7894;DHT22;51343;51.396;6.656;2022-08-05T09:10:12;17.20;99.90
7894;DHT22;51343;51.396;6.656;2022-08-05T09:12:40;17.20;99.90
7894;DHT22;51343;51.396;6.656;2022-08-05T09:15:07;17.20;99.90
7894;DHT22;51343;51.396;6.656;2022-08-05T09:17:35;17.30;99.90
7894;DHT22;51343;51.396;6.656;2022-08-05T09:20:03;17.30;99.90
7894;DHT22;51343;51.396;6.656;2022-08-05T09:22:37;17.50;99.90
7894;DHT22;51343;51.396;6.656;2022-08-05T09:25:24;17.50;99.90
7894;DHT22;51343;51.396;6.656;2022-08-05T09:27:52;17.60;99.90
7894;DHT22;51343;51.396;6.656;2022-08-05T09:30:19;17.60;99.90
7894;DHT22;51343;51.396;6.656;2022-08-05T09:32:46;17.60;99.90
7894;DHT22;51343;51.396;6.656;2022-08-05T09:35:13;17.70;99.90
7894;DHT22;51343;51.396;6.656;2022-08-05T09:37:47;17.80;99.90
7894;DHT22;51343;51.396;6.656;2022-08-05T09:43:02;18.20;99.90
7894;DHT22;51343;51.396;6.656;2022-08-05T09:45:35;18.40;99.90
7894;DHT22;51343;51.396;6.656;2022-08-05T09:48:18;18.70;99.90
7894;DHT22;51343;51.396;6.656;2022-08-05T09:50:47;18.80;99.90
7894;DHT22;51343;51.396;6.656;2022-08-05T09:53:14;18.80;99.90
7894;DHT22;51343;51.396;6.656;2022-08-05T09:55:41;18.80;99.90
7894;DHT22;51343;51.396;6.656;2022-08-05T09:58:12;18.90;99.90
7894;DHT22;51343;51.396;6.656;2022-08-05T10:00:42;19.00;99.90
7894;DHT22;51343;51.396;6.656;2022-08-05T10:03:17;19.10;99.90
7894;DHT22;51343;51.396;6.656;2022-08-05T10:05:44;19.30;99.90
7894;DHT22;51343;51.396;6.656;2022-08-05T10:08:10;19.40;99.90
7894;DHT22;51343;51.396;6.656;2022-08-05T10:10:38;19.50;99.90
7894;DHT22;51343;51.396;6.656;2022-08-05T10:13:12;19.50;99.90
7894;DHT22;51343;51.396;6.656;2022-08-05T10:15:50;19.50;99.90
7894;DHT22;51343;51.396;6.656;2022-08-05T10:18:18;19.50;1.00
7894;DHT22;51343;51.396;6.656;2022-08-05T10:20:47;19.60;99.90
7894;DHT22;51343;51.396;6.656;2022-08-05T10:23:16;19.70;1.00
7894;DHT22;51343;51.396;6.656;2022-08-05T10:25:43;19.90;79.60
7894;DHT22;51343;51.396;6.656;2022-08-05T10:28:10;19.90;99.90
7894;DHT22;51343;51.396;6.656;2022-08-05T10:30:38;20.30;1.00
7894;DHT22;51343;51.396;6.656;2022-08-05T10:33:05;20.40;99.90
7894;DHT22;51343;51.396;6.656;2022-08-05T10:35:33;20.50;1.00
7894;DHT22;51343;51.396;6.656;2022-08-05T10:38:01;20.70;99.90
7894;DHT22;51343;51.396;6.656;2022-08-05T10:40:30;20.70;1.00
7894;DHT22;51343;51.396;6.656;2022-08-05T10:43:01;20.70;99.90
7894;DHT22;51343;51.396;6.656;2022-08-05T10:45:29;20.80;1.00
7894;DHT22;51343;51.396;6.656;2022-08-05T10:47:57;20.90;99.90
7894;DHT22;51343;51.396;6.656;2022-08-05T10:50:56;20.90;99.90
7894;DHT22;51343;51.396;6.656;2022-08-05T10:53:31;21.00;99.90
7894;DHT22;51343;51.396;6.656;2022-08-05T10:56:02;21.00;99.90
7894;DHT22;51343;51.396;6.656;2022-08-05T10:58:30;20.90;1.00
7894;DHT22;51343;51.396;6.656;2022-08-05T11:00:56;20.90;99.90
7894;DHT22;51343;51.396;6.656;2022-08-05T11:03:25;21.00;99.90
7894;DHT22;51343;51.396;6.656;2022-08-05T11:06:02;21.00;99.90
7894;DHT22;51343;51.396;6.656;2022-08-05T11:08:29;21.00;1.00
7894;DHT22;51343;51.396;6.656;2022-08-05T11:11:03;20.80;99.90
7894;DHT22;51343;51.396;6.656;2022-08-05T11:13:49;20.90;99.90
7894;DHT22;51343;51.396;6.656;2022-08-05T11:16:21;20.90;1.00
7894;DHT22;51343;51.396;6.656;2022-08-05T11:21:32;20.90;99.90
7894;DHT22;51343;51.396;6.656;2022-08-05T11:24:05;20.90;1.00
7894;DHT22;51343;51.396;6.656;2022-08-05T11:26:33;20.90;1.00
7894;DHT22;51343;51.396;6.656;2022-08-05T11:29:00;20.90;2.40
7894;DHT22;51343;51.396;6.656;2022-08-05T11:31:29;20.90;99.90
7894;DHT22;51343;51.396;6.656;2022-08-05T11:34:00;21.60;99.90
7894;DHT22;51343;51.396;6.656;2022-08-05T11:36:48;22.50;1.00
7894;DHT22;51343;51.396;6.656;2022-08-05T11:39:45;22.90;1.00
7894;DHT22;51343;51.396;6.656;2022-08-05T11:42:04;23.20;99.90
7894;DHT22;51343;51.396;6.656;2022-08-05T11:44:35;23.80;74.70
7894;DHT22;51343;51.396;6.656;2022-08-05T11:47:02;23.50;99.90
7894;DHT22;51343;51.396;6.656;2022-08-05T11:49:29;23.40;99.90
7894;DHT22;51343;51.396;6.656;2022-08-05T11:51:55;23.70;1.00
7894;DHT22;51343;51.396;6.656;2022-08-05T11:54:22;24.30;99.90
7894;DHT22;51343;51.396;6.656;2022-08-05T11:56:52;24.40;99.90
7894;DHT22;51343;51.396;6.656;2022-08-05T11:59:21;24.40;99.90
7894;DHT22;51343;51.396;6.656;2022-08-05T12:01:55;24.40;1.00
7894;DHT22;51343;51.396;6.656;2022-08-05T12:04:22;24.10;99.90
7894;DHT22;51343;51.396;6.656;2022-08-05T12:06:49;24.10;1.00
7894;DHT22;51343;51.396;6.656;2022-08-05T12:09:16;24.40;1.00
7894;DHT22;51343;51.396;6.656;2022-08-05T12:11:44;24.00;1.00
7894;DHT22;51343;51.396;6.656;2022-08-05T12:14:11;24.20;1.00
7894;DHT22;51343;51.396;6.656;2022-08-05T12:16:40;24.50;1.00
7894;DHT22;51343;51.396;6.656;2022-08-05T12:19:09;24.30;1.00
7894;DHT22;51343;51.396;6.656;2022-08-05T12:21:42;23.90;1.00
7894;DHT22;51343;51.396;6.656;2022-08-05T12:24:10;23.70;1.00
7894;DHT22;51343;51.396;6.656;2022-08-05T12:26:39;23.60;1.00
7894;DHT22;51343;51.396;6.656;2022-08-05T12:29:06;23.70;1.00
7894;DHT22;51343;51.396;6.656;2022-08-05T12:31:33;23.50;99.90
7894;DHT22;51343;51.396;6.656;2022-08-05T12:34:02;22.80;1.00
7894;DHT22;51343;51.396;6.656;2022-08-05T12:36:29;22.30;1.00
7894;DHT22;51343;51.396;6.656;2022-08-05T12:38:55;21.90;1.00
7894;DHT22;51343;51.396;6.656;2022-08-05T12:41:22;21.70;1.00
7894;DHT22;51343;51.396;6.656;2022-08-05T12:43:56;21.50;1.00
7894;DHT22;51343;51.396;6.656;2022-08-05T12:46:24;21.30;1.00
7894;DHT22;51343;51.396;6.656;2022-08-05T12:48:57;21.20;1.00
7894;DHT22;51343;51.396;6.656;2022-08-05T12:51:26;21.10;1.00
7894;DHT22;51343;51.396;6.656;2022-08-05T12:53:59;21.00;1.00
7894;DHT22;51343;51.396;6.656;2022-08-05T12:56:26;21.10;1.00
7894;DHT22;51343;51.396;6.656;2022-08-05T12:59:12;21.10;1.00
7894;DHT22;51343;51.396;6.656;2022-08-05T13:01:40;21.10;1.00
7894;DHT22;51343;51.396;6.656;2022-08-05T13:04:07;21.10;1.00
7894;DHT22;51343;51.396;6.656;2022-08-05T13:06:37;21.10;1.00
7894;DHT22;51343;51.396;6.656;2022-08-05T13:09:05;21.00;1.00
7894;DHT22;51343;51.396;6.656;2022-08-05T13:11:36;20.90;99.90
7894;DHT22;51343;51.396;6.656;2022-08-05T13:14:08;21.00;99.90
7894;DHT22;51343;51.396;6.656;2022-08-05T13:16:43;21.00;1.00
7894;DHT22;51343;51.396;6.656;2022-08-05T13:19:09;21.10;99.90
7894;DHT22;51343;51.396;6.656;2022-08-05T13:21:39;21.20;99.90
7894;DHT22;51343;51.396;6.656;2022-08-05T13:24:06;21.30;1.00
7894;DHT22;51343;51.396;6.656;2022-08-05T13:26:32;21.30;99.90
7894;DHT22;51343;51.396;6.656;2022-08-05T13:28:59;21.40;1.00
7894;DHT22;51343;51.396;6.656;2022-08-05T13:31:26;21.40;1.00
7894;DHT22;51343;51.396;6.656;2022-08-05T13:33:52;21.40;1.00
7894;DHT22;51343;51.396;6.656;2022-08-05T13:36:19;21.30;1.00
7894;DHT22;51343;51.396;6.656;2022-08-05T13:38:47;21.30;1.00
7894;DHT22;51343;51.396;6.656;2022-08-05T13:41:14;21.30;1.00
7894;DHT22;51343;51.396;6.656;2022-08-05T13:43:41;21.50;99.90
7894;DHT22;51343;51.396;6.656;2022-08-05T13:46:08;21.70;1.00
7894;DHT22;51343;51.396;6.656;2022-08-05T13:48:35;21.80;1.00
7894;DHT22;51343;51.396;6.656;2022-08-05T13:51:05;21.90;99.90
7894;DHT22;51343;51.396;6.656;2022-08-05T13:53:32;22.00;99.90
7894;DHT22;51343;51.396;6.656;2022-08-05T13:56:01;22.20;1.00
7894;DHT22;51343;51.396;6.656;2022-08-05T13:58:28;23.40;1.00
7894;DHT22;51343;51.396;6.656;2022-08-05T14:00:55;24.30;1.00
7894;DHT22;51343;51.396;6.656;2022-08-05T14:03:21;25.10;1.00
7894;DHT22;51343;51.396;6.656;2022-08-05T14:05:48;25.50;1.00
7894;DHT22;51343;51.396;6.656;2022-08-05T14:08:14;25.70;1.00
7894;DHT22;51343;51.396;6.656;2022-08-05T14:10:40;25.80;1.00
7894;DHT22;51343;51.396;6.656;2022-08-05T14:13:09;25.90;1.00
7894;DHT22;51343;51.396;6.656;2022-08-05T14:15:35;25.70;1.00
7894;DHT22;51343;51.396;6.656;2022-08-05T14:18:02;25.80;1.00
7894;DHT22;51343;51.396;6.656;2022-08-05T14:20:29;25.70;1.00
7894;DHT22;51343;51.396;6.656;2022-08-05T14:22:56;25.70;99.90
7894;DHT22;51343;51.396;6.656;2022-08-05T14:25:23;25.70;1.00
7894;DHT22;51343;51.396;6.656;2022-08-05T14:27:49;24.90;1.00
7894;DHT22;51343;51.396;6.656;2022-08-05T14:30:18;24.20;1.00
7894;DHT22;51343;51.396;6.656;2022-08-05T14:32:45;23.70;1.00
7894;DHT22;51343;51.396;6.656;2022-08-05T14:35:12;23.40;1.00
7894;DHT22;51343;51.396;6.656;2022-08-05T14:37:39;23.10;1.00
7894;DHT22;51343;51.396;6.656;2022-08-05T14:40:06;23.20;99.90
7894;DHT22;51343;51.396;6.656;2022-08-05T14:42:32;23.30;1.00
7894;DHT22;51343;51.396;6.656;2022-08-05T14:45:00;23.90;1.00
7894;DHT22;51343;51.396;6.656;2022-08-05T14:47:28;24.50;1.00
7894;DHT22;51343;51.396;6.656;2022-08-05T14:49:55;24.20;99.90
7894;DHT22;51343;51.396;6.656;2022-08-05T14:52:21;23.90;1.00
7894;DHT22;51343;51.396;6.656;2022-08-05T14:54:48;23.50;1.00
7894;DHT22;51343;51.396;6.656;2022-08-05T14:57:15;23.70;1.00
7894;DHT22;51343;51.396;6.656;2022-08-05T14:59:41;23.60;1.00
7894;DHT22;51343;51.396;6.656;2022-08-05T15:02:08;24.00;1.00
7894;DHT22;51343;51.396;6.656;2022-08-05T15:04:36;24.40;99.90
7894;DHT22;51343;51.396;6.656;2022-08-05T15:07:03;24.80;99.90
7894;DHT22;51343;51.396;6.656;2022-08-05T15:09:30;24.90;99.90
7894;DHT22;51343;51.396;6.656;2022-08-05T15:11:56;24.90;99.90
7894;DHT22;51343;51.396;6.656;2022-08-05T15:14:33;24.70;99.90
7894;DHT22;51343;51.396;6.656;2022-08-05T15:17:00;24.20;99.90
7894;DHT22;51343;51.396;6.656;2022-08-05T15:19:29;23.90;99.90
7894;DHT22;51343;51.396;6.656;2022-08-05T15:21:58;23.50;99.90
7894;DHT22;51343;51.396;6.656;2022-08-05T15:24:25;23.30;91.40
7894;DHT22;51343;51.396;6.656;2022-08-05T15:26:52;23.00;3.60
7894;DHT22;51343;51.396;6.656;2022-08-05T15:29:19;22.90;1.00
7894;DHT22;51343;51.396;6.656;2022-08-05T15:31:45;22.80;1.00
7894;DHT22;51343;51.396;6.656;2022-08-05T15:34:12;22.70;1.00
7894;DHT22;51343;51.396;6.656;2022-08-05T15:36:39;22.60;99.90
7894;DHT22;51343;51.396;6.656;2022-08-05T15:39:07;22.50;1.00
7894;DHT22;51343;51.396;6.656;2022-08-05T15:41:33;22.30;1.00
7894;DHT22;51343;51.396;6.656;2022-08-05T15:44:00;22.20;99.90
7894;DHT22;51343;51.396;6.656;2022-08-05T15:46:27;22.10;1.00
7894;DHT22;51343;51.396;6.656;2022-08-05T15:48:54;22.10;99.90
7894;DHT22;51343;51.396;6.656;2022-08-05T15:51:23;22.40;1.00
7894;DHT22;51343;51.396;6.656;2022-08-05T15:53:50;22.90;1.00
7894;DHT22;51343;51.396;6.656;2022-08-05T15:56:19;23.10;99.90
7894;DHT22;51343;51.396;6.656;2022-08-05T15:58:46;23.30;1.00
7894;DHT22;51343;51.396;6.656;2022-08-05T16:01:13;23.50;99.90